»·PEaware :: N441PW CYZP-CYXT

N441PW :: CYZP-CYXT

FLIGHT INFORMATION

Flight Status: Arrived
Operator: Privately registered:
United States
More flights under this callsign
Pilot: Stacy K. (11621)
Aircraft: CESSNA 404 TITAN
(C404)
More flights by this aircraft type
Origin: CYZP Sandspit
Canada
Destination: CYXT Terrace
Canada
More flights between these airports :: More routes between these airports
Route: PR XT
File this flight plan on PilotEdge
Remarks:
Altitude:
(Current/Filed)
5,500ft
Speed:
(Current/Filed)
190kts
Departed: 14-Jul-19 06:06 PM
Arrived: 14-Jul-19 06:58 PM
Distance/Time
Traveled:
136nm/0:52
Distance/Time
To Go:
Arrived

Flight Plot

Page will automatically refresh every two minutes.

Flight plan parsing failed; only flown route is shown


Map Options




Map Legend


Flown Route
Filed Route
Departure Airport
Arrival Airport
Navaid (VOR, NDB)
Fix

Horizontal Profiles

Position Reports

Time Latitude Longitude Heading Altitude Ground
Speed
14-Jul-19 17:58 53.253379 -131.816255 146 25ft 0kts
14-Jul-19 17:59 53.253379 -131.816255 146 25ft 0kts
14-Jul-19 18:00 53.253379 -131.816255 146 25ft 0kts
14-Jul-19 18:01 53.253379 -131.816255 146 25ft 0kts
14-Jul-19 18:02 53.253379 -131.816255 146 25ft 0kts
14-Jul-19 18:03 53.254100 -131.814260 56 25ft 3kts
14-Jul-19 18:04 53.258229 -131.818569 325 25ft 25kts
14-Jul-19 18:05 53.247876 -131.805809 137 382ft 94kts
14-Jul-19 18:06 53.263453 -131.769957 7 1449ft 145kts
14-Jul-19 18:07 53.303082 -131.746797 35 2286ft 157kts
14-Jul-19 18:08 53.338005 -131.701719 39 3086ft 160kts
14-Jul-19 18:09 53.372883 -131.654889 39 3887ft 161kts
14-Jul-19 18:10 53.408154 -131.607501 40 4700ft 163kts
14-Jul-19 18:11 53.443619 -131.559722 40 5421ft 166kts
14-Jul-19 18:12 53.482225 -131.507351 40 5500ft 187kts
14-Jul-19 18:13 53.523174 -131.451913 40 5500ft 191kts
14-Jul-19 18:14 53.564604 -131.395648 39 5498ft 191kts
14-Jul-19 18:15 53.606109 -131.339125 40 5500ft 193kts
14-Jul-19 18:16 53.647986 -131.281943 40 5500ft 193kts
14-Jul-19 18:17 53.689905 -131.224515 40 5501ft 194kts
14-Jul-19 18:18 53.732714 -131.165720 39 5073ft 206kts
14-Jul-19 18:19 53.777858 -131.103932 40 4402ft 209kts
14-Jul-19 18:20 53.822738 -131.041645 39 3726ft 208kts
14-Jul-19 18:21 53.867403 -130.979790 39 3056ft 206kts
14-Jul-19 18:22 53.910192 -130.920387 39 2905ft 193kts
14-Jul-19 18:23 53.951407 -130.863001 39 2901ft 191kts
14-Jul-19 18:24 53.992286 -130.805415 45 2905ft 190kts
14-Jul-19 18:25 54.016770 -130.726545 67 2907ft 190kts
14-Jul-19 18:26 54.035344 -130.642301 69 2908ft 190kts
14-Jul-19 18:27 54.055843 -130.559225 67 2908ft 190kts
14-Jul-19 18:28 54.074078 -130.474507 69 2908ft 190kts
14-Jul-19 18:29 54.092638 -130.389814 72 2908ft 190kts
14-Jul-19 18:30 54.105184 -130.302329 79 2908ft 190kts
14-Jul-19 18:31 54.116887 -130.214321 72 2910ft 190kts
14-Jul-19 18:32 54.134555 -130.134897 70 3551ft 173kts
14-Jul-19 18:33 54.155010 -130.058073 60 3810ft 186kts
14-Jul-19 18:34 54.181749 -129.980129 62 3807ft 192kts
14-Jul-19 18:35 54.205051 -129.898163 67 3806ft 192kts
14-Jul-19 18:36 54.211083 -129.808203 96 3713ft 196kts
14-Jul-19 18:37 54.200110 -129.714041 105 3032ft 205kts
14-Jul-19 18:38 54.177058 -129.628235 88 2696ft 194kts
14-Jul-19 18:40 54.211447 -129.562420 55 2701ft 190kts
14-Jul-19 18:41 54.236925 -129.484191 84 2702ft 189kts
14-Jul-19 18:42 54.260898 -129.409946 31 2701ft 189kts
14-Jul-19 18:43 54.303131 -129.357565 56 2697ft 190kts
14-Jul-19 18:44 54.322215 -129.273023 75 2695ft 191kts
14-Jul-19 18:45 54.332565 -129.184344 58 2690ft 191kts
14-Jul-19 18:46 54.367659 -129.116475 58 2692ft 191kts
14-Jul-19 18:47 54.389395 -129.033386 64 2691ft 191kts
14-Jul-19 18:48 54.407770 -128.948817 90 2691ft 190kts
14-Jul-19 18:49 54.409604 -128.860774 54 2658ft 192kts
14-Jul-19 18:50 54.443810 -128.785455 51 2034ft 203kts
14-Jul-19 18:51 54.486302 -128.723437 12 1504ft 200kts
14-Jul-19 18:52 54.540051 -128.725241 351 1488ft 191kts
14-Jul-19 18:53 54.589459 -128.697365 46 1473ft 186kts
14-Jul-19 18:54 54.580766 -128.633166 137 1481ft 128kts
14-Jul-19 18:55 54.549293 -128.613178 163 1487ft 119kts
14-Jul-19 18:56 54.515368 -128.598931 171 1485ft 130kts
14-Jul-19 18:57 54.480106 -128.590031 172 796ft 112kts
14-Jul-19 18:58 54.469420 -128.587413 349 717ft 24kts
14-Jul-19 18:59 54.473986 -128.584124 93 717ft 15kts
14-Jul-19 19:00 54.472124 -128.578033 111 717ft 13kts
14-Jul-19 19:00 54.472344 -128.577323 55 717ft 0kts

Navigation Log

Ident Type
Flight plan parsing failed, navigation log unavailable